createdAt,value
2023-05-11T00:01:08.578Z,2.38
2023-05-11T00:03:36.314Z,2.15
2023-05-11T00:06:03.564Z,2.80
2023-05-11T00:08:30.893Z,2.13
2023-05-11T00:11:00.966Z,2.20
2023-05-11T00:13:29.402Z,3.00
2023-05-11T00:15:56.734Z,2.28
2023-05-11T00:18:24.200Z,3.03
2023-05-11T00:20:51.254Z,2.30
2023-05-11T00:23:18.415Z,1.90
2023-05-11T00:25:45.541Z,2.58
2023-05-11T00:28:12.642Z,2.75
2023-05-11T00:30:42.724Z,2.28
2023-05-11T00:33:09.863Z,1.80
2023-05-11T00:35:37.354Z,2.28
2023-05-11T00:38:04.578Z,2.72
2023-05-11T00:40:32.379Z,2.83
2023-05-11T00:42:59.750Z,2.17
2023-05-11T00:45:27.056Z,1.92
2023-05-11T00:47:54.302Z,2.05
2023-05-11T00:50:21.450Z,2.20
2023-05-11T00:52:48.625Z,3.03
2023-05-11T00:55:19.495Z,2.15
2023-05-11T00:57:47.115Z,1.50
2023-05-11T01:03:19.780Z,2.15
2023-05-11T01:06:01.533Z,2.63
2023-05-11T01:08:43.066Z,3.72
2023-05-11T01:11:34.362Z,2.35
2023-05-11T01:14:16.169Z,2.90
2023-05-11T01:16:49.862Z,2.72
2023-05-11T01:19:33.988Z,3.88
2023-05-11T01:22:08.772Z,3.80
2023-05-11T01:25:15.377Z,3.92
2023-05-11T01:28:10.834Z,4.82
2023-05-11T01:31:14.248Z,3.92
2023-05-11T01:33:55.947Z,3.88
2023-05-11T01:36:29.776Z,4.10
2023-05-11T01:39:06.422Z,3.50
2023-05-11T01:41:36.644Z,4.18
2023-05-11T01:44:10.261Z,3.42
2023-05-11T01:46:39.024Z,3.88
2023-05-11T01:49:08.495Z,2.70
2023-05-11T01:51:39.310Z,3.60
2023-05-11T01:54:09.854Z,3.90
2023-05-11T01:56:42.221Z,3.40
2023-05-11T01:59:13.135Z,3.00
2023-05-11T02:01:43.344Z,3.53
2023-05-11T02:04:12.071Z,3.55
2023-05-11T02:06:41.275Z,3.80
2023-05-11T02:09:12.709Z,3.53
2023-05-11T02:11:42.903Z,3.97
2023-05-11T02:14:12.043Z,3.10
2023-05-11T02:16:39.809Z,4.15
2023-05-11T02:19:10.555Z,3.60
2023-05-11T02:21:38.531Z,3.45
2023-05-11T02:24:07.488Z,3.55
2023-05-11T02:26:35.424Z,3.75
2023-05-11T02:29:02.789Z,3.50
2023-05-11T02:31:32.979Z,3.42
2023-05-11T02:34:06.709Z,3.53
2023-05-11T02:36:37.875Z,3.80
2023-05-11T02:39:09.958Z,3.72
2023-05-11T02:41:43.757Z,4.10
2023-05-11T02:44:16.298Z,4.25
2023-05-11T02:46:47.815Z,4.63
2023-05-11T02:49:18.152Z,3.78
2023-05-11T02:51:46.553Z,4.32
2023-05-11T02:54:17.098Z,4.00
2023-05-11T02:56:48.949Z,4.32
2023-05-11T02:59:16.400Z,4.07
2023-05-11T03:01:45.193Z,3.50
2023-05-11T03:04:14.487Z,3.75
2023-05-11T03:06:42.081Z,3.28
2023-05-11T03:09:10.492Z,4.05
2023-05-11T03:11:44.037Z,2.90
2023-05-11T03:14:11.945Z,3.63
2023-05-11T03:16:40.560Z,2.90
2023-05-11T03:19:08.750Z,3.63
2023-05-11T03:21:38.607Z,3.60
2023-05-11T03:24:09.348Z,3.38
2023-05-11T03:26:37.281Z,3.83
2023-05-11T03:29:07.913Z,3.35
2023-05-11T03:31:35.148Z,3.13
2023-05-11T03:34:02.510Z,3.55
2023-05-11T03:36:36.156Z,4.97
2023-05-11T03:39:05.120Z,3.78
2023-05-11T03:41:35.310Z,3.22
2023-05-11T03:44:06.142Z,4.13
2023-05-11T03:46:38.080Z,4.53
2023-05-11T03:49:08.247Z,3.72
2023-05-11T03:51:36.274Z,3.50
2023-05-11T03:54:03.459Z,3.70
2023-05-11T03:56:30.709Z,2.97
2023-05-11T03:58:58.589Z,4.13
2023-05-11T04:01:26.644Z,4.20
2023-05-11T04:03:54.127Z,3.13
2023-05-11T04:06:23.344Z,3.15
2023-05-11T04:09:01.258Z,2.92
2023-05-11T04:11:30.641Z,4.03
2023-05-11T04:13:57.736Z,4.18
2023-05-11T04:16:24.879Z,2.80
2023-05-11T04:18:52.236Z,3.35
2023-05-11T04:21:19.309Z,3.35
2023-05-11T04:23:46.392Z,3.78
2023-05-11T04:26:13.498Z,3.58
2023-05-11T04:28:40.500Z,3.00
2023-05-11T04:31:07.701Z,3.13
2023-05-11T04:33:34.845Z,3.53
2023-05-11T04:36:02.108Z,3.17
2023-05-11T04:38:30.024Z,2.75
2023-05-11T04:40:57.071Z,2.65
2023-05-11T04:43:25.016Z,2.95
2023-05-11T04:45:52.314Z,2.45
2023-05-11T04:48:27.191Z,2.35
2023-05-11T04:50:57.965Z,2.65
2023-05-11T04:53:29.797Z,2.90
2023-05-11T04:56:00.363Z,2.78
2023-05-11T04:58:30.639Z,2.47
2023-05-11T05:00:59.527Z,2.33
2023-05-11T05:03:32.287Z,2.05
2023-05-11T05:06:00.157Z,2.17
2023-05-11T05:08:30.698Z,1.95
2023-05-11T05:11:00.538Z,2.05
2023-05-11T05:13:28.217Z,2.42
2023-05-11T05:15:57.632Z,2.08
2023-05-11T05:18:24.851Z,1.58
2023-05-11T05:20:51.915Z,1.92
2023-05-11T05:23:19.190Z,1.80
2023-05-11T05:25:46.368Z,2.22
2023-05-11T05:28:13.585Z,1.88
2023-05-11T05:30:40.800Z,1.73
2023-05-11T05:33:08.044Z,1.85
2023-05-11T05:35:36.058Z,2.13
2023-05-11T05:38:03.899Z,1.95
2023-05-11T05:40:31.864Z,1.92
2023-05-11T05:42:59.012Z,1.77
2023-05-11T05:45:26.141Z,1.58
2023-05-11T05:47:53.867Z,1.48
2023-05-11T05:50:22.534Z,1.60
2023-05-11T05:52:49.602Z,1.73
2023-05-11T05:55:17.373Z,1.58
2023-05-11T05:57:46.869Z,1.60
2023-05-11T06:00:15.376Z,1.80
2023-05-11T06:02:42.556Z,1.55
2023-05-11T06:05:18.697Z,2.35
2023-05-11T06:07:58.119Z,1.50
2023-05-11T06:10:34.535Z,2.22
2023-05-11T06:13:01.791Z,2.20
2023-05-11T06:15:29.653Z,1.52
2023-05-11T06:18:02.655Z,1.98
2023-05-11T06:20:32.109Z,1.55
2023-05-11T06:22:59.677Z,1.90
2023-05-11T06:25:27.947Z,1.77
2023-05-11T06:27:54.976Z,2.25
2023-05-11T06:30:22.459Z,1.67
2023-05-11T06:32:51.432Z,1.60
2023-05-11T06:35:21.142Z,1.73
2023-05-11T06:37:49.648Z,1.50
2023-05-11T06:40:17.146Z,1.33
2023-05-11T06:42:44.726Z,2.03
2023-05-11T06:45:12.703Z,1.73
2023-05-11T06:47:42.563Z,1.38
2023-05-11T06:50:13.082Z,1.58
2023-05-11T06:52:43.105Z,1.50
2023-05-11T06:55:14.505Z,1.80
2023-05-11T06:57:41.730Z,1.42
2023-05-11T07:00:09.530Z,2.00
2023-05-11T07:02:39.955Z,1.60
2023-05-11T07:05:07.504Z,2.60
2023-05-11T07:07:34.632Z,2.72
2023-05-11T07:10:01.677Z,2.20
2023-05-11T07:12:28.836Z,6.57
2023-05-11T07:14:56.840Z,1.65
2023-05-11T07:17:24.037Z,1.95
2023-05-11T07:19:54.933Z,1.63
2023-05-11T07:22:22.212Z,1.55
2023-05-11T07:24:49.274Z,1.90
2023-05-11T07:27:16.630Z,1.95
2023-05-11T07:29:43.848Z,2.25
2023-05-11T07:32:11.228Z,1.38
2023-05-11T07:34:38.214Z,1.73
2023-05-11T07:37:05.392Z,1.58
2023-05-11T07:39:32.331Z,3.05
2023-05-11T07:41:59.520Z,2.10
2023-05-11T07:44:26.970Z,1.80
2023-05-11T07:46:55.168Z,2.25
2023-05-11T07:49:28.225Z,2.30
2023-05-11T07:52:06.894Z,1.48
2023-05-11T07:54:34.008Z,1.70
2023-05-11T07:57:01.776Z,2.58
2023-05-11T07:59:28.885Z,1.60
2023-05-11T08:01:56.169Z,1.42
2023-05-11T08:04:23.982Z,1.45
2023-05-11T08:06:51.386Z,1.88
2023-05-11T08:09:18.449Z,1.55
2023-05-11T08:11:45.777Z,1.38
2023-05-11T08:14:13.885Z,1.60
2023-05-11T08:16:41.315Z,1.63
2023-05-11T08:19:08.790Z,1.30
2023-05-11T08:21:36.265Z,1.55
2023-05-11T08:24:03.480Z,1.35
2023-05-11T08:26:30.583Z,1.83
2023-05-11T08:28:57.679Z,1.65
2023-05-11T08:31:24.847Z,1.92
2023-05-11T08:33:54.731Z,2.13
2023-05-11T08:36:22.503Z,1.17
2023-05-11T08:38:49.566Z,1.40
2023-05-11T08:41:16.649Z,1.40
2023-05-11T08:43:49.403Z,1.52
2023-05-11T08:46:24.066Z,1.90
2023-05-11T08:48:53.744Z,1.60
2023-05-11T08:51:21.273Z,2.28
2023-05-11T08:53:48.573Z,1.67
2023-05-11T08:56:17.074Z,1.83
2023-05-11T08:58:44.578Z,1.50
2023-05-11T09:01:12.859Z,2.00
2023-05-11T09:03:41.305Z,1.45
2023-05-11T09:06:09.895Z,1.90
2023-05-11T09:08:38.401Z,1.60
2023-05-11T09:11:06.437Z,1.58
2023-05-11T09:13:34.279Z,1.38
2023-05-11T09:16:01.494Z,1.38
2023-05-11T09:18:28.749Z,1.00
2023-05-11T09:20:55.852Z,1.50
2023-05-11T09:23:29.398Z,1.70
2023-05-11T09:28:27.199Z,1.00
2023-05-11T09:30:54.721Z,1.23
2023-05-11T09:33:26.808Z,1.30
2023-05-11T09:35:53.974Z,0.98
2023-05-11T09:38:23.239Z,1.48
2023-05-11T09:40:52.911Z,1.27
2023-05-11T09:43:20.925Z,1.30
2023-05-11T09:45:50.898Z,1.23
2023-05-11T09:48:21.371Z,1.45
2023-05-11T09:50:50.326Z,1.67
2023-05-11T09:53:17.696Z,1.42
2023-05-11T09:55:56.103Z,1.67
2023-05-11T09:58:23.287Z,1.30
2023-05-11T10:00:51.629Z,1.25
2023-05-11T10:03:18.937Z,1.63
2023-05-11T10:06:04.656Z,1.48
2023-05-11T10:08:34.700Z,1.70
2023-05-11T10:11:03.160Z,1.58
2023-05-11T10:13:32.980Z,1.63
2023-05-11T10:16:04.879Z,1.30
2023-05-11T10:18:32.754Z,2.40
2023-05-11T10:21:00.377Z,2.42
2023-05-11T10:23:27.704Z,1.92
2023-05-11T10:25:55.331Z,1.48
2023-05-11T10:28:22.742Z,1.45
2023-05-11T10:30:50.149Z,2.47
2023-05-11T10:33:18.369Z,1.73
2023-05-11T10:35:46.222Z,2.03
2023-05-11T10:38:15.361Z,1.52
2023-05-11T10:40:45.959Z,1.67
2023-05-11T10:43:31.965Z,1.63
2023-05-11T10:46:14.214Z,1.23
2023-05-11T10:49:14.067Z,1.23
2023-05-11T10:51:56.278Z,1.45
2023-05-11T10:54:47.888Z,1.55
2023-05-11T10:57:20.993Z,1.08
2023-05-11T11:00:31.260Z,1.50
2023-05-11T11:03:11.098Z,1.42
2023-05-11T11:05:39.121Z,1.30
2023-05-11T11:08:09.464Z,1.83
2023-05-11T11:10:39.524Z,1.50
2023-05-11T11:13:09.377Z,1.23
2023-05-11T11:15:58.007Z,1.30
2023-05-11T11:18:26.819Z,2.13
2023-05-11T11:20:56.500Z,1.17
2023-05-11T11:23:44.281Z,1.23
2023-05-11T11:26:15.707Z,1.23
2023-05-11T11:28:55.103Z,1.20
2023-05-11T11:31:26.504Z,1.25
2023-05-11T11:33:59.190Z,1.38
2023-05-11T11:37:06.876Z,1.53
2023-05-11T11:39:43.229Z,1.92
2023-05-11T11:42:20.297Z,1.40
2023-05-11T11:44:47.531Z,1.55
2023-05-11T11:47:21.742Z,1.65
2023-05-11T11:49:51.519Z,1.17
2023-05-11T11:52:27.439Z,1.20
2023-05-11T11:54:56.340Z,1.40
2023-05-11T11:57:32.769Z,1.75
2023-05-11T12:00:00.570Z,1.38
2023-05-11T12:02:31.086Z,1.10
2023-05-11T12:05:09.509Z,1.00
2023-05-11T12:07:42.651Z,1.98
2023-05-11T12:10:12.565Z,1.35
2023-05-11T12:12:40.274Z,1.10
2023-05-11T12:15:08.445Z,1.05
2023-05-11T12:17:39.035Z,1.20
2023-05-11T12:20:14.722Z,1.33
2023-05-11T12:22:42.232Z,1.48
2023-05-11T12:25:11.539Z,1.88
2023-05-11T12:27:54.938Z,1.50
2023-05-11T12:30:25.954Z,1.40
2023-05-11T12:32:57.434Z,1.45
2023-05-11T12:35:30.053Z,1.67
2023-05-11T12:37:59.411Z,1.50
2023-05-11T12:40:27.422Z,1.30
2023-05-11T12:42:56.393Z,1.30
2023-05-11T12:45:25.145Z,1.60
2023-05-11T12:47:54.412Z,1.55
2023-05-11T12:50:23.057Z,1.05
2023-05-11T12:52:50.881Z,1.30
2023-05-11T12:55:31.223Z,1.58
2023-05-11T12:58:35.936Z,1.45
2023-05-11T13:01:03.109Z,1.17
2023-05-11T13:03:32.745Z,1.27
2023-05-11T13:06:10.902Z,1.77
2023-05-11T13:08:45.941Z,1.25
2023-05-11T13:11:31.302Z,1.00
2023-05-11T13:13:58.417Z,1.42
2023-05-11T13:16:33.941Z,1.27
2023-05-11T13:19:06.663Z,1.30
2023-05-11T13:21:34.604Z,1.20
2023-05-11T13:24:04.088Z,1.45
2023-05-11T13:26:32.369Z,1.50
2023-05-11T13:29:10.324Z,1.48
2023-05-11T13:31:49.620Z,1.55
2023-05-11T13:34:17.716Z,1.30
2023-05-11T13:36:45.159Z,1.33
2023-05-11T13:39:12.387Z,1.80
2023-05-11T13:41:39.489Z,1.92
2023-05-11T13:44:06.713Z,1.65
2023-05-11T13:46:34.042Z,1.38
2023-05-11T13:49:01.249Z,1.30
2023-05-11T13:51:28.318Z,1.60
2023-05-11T13:53:55.469Z,1.42
2023-05-11T13:56:22.666Z,1.52
2023-05-11T13:58:49.761Z,1.55
2023-05-11T14:01:17.393Z,1.40
2023-05-11T14:03:44.541Z,1.40
2023-05-11T14:06:11.677Z,1.30
2023-05-11T14:08:38.739Z,1.55
2023-05-11T14:11:06.219Z,1.25
2023-05-11T14:13:33.699Z,1.38
2023-05-11T14:16:06.062Z,1.40
2023-05-11T14:18:33.492Z,1.95
2023-05-11T14:21:01.123Z,1.50
2023-05-11T14:23:28.294Z,1.48
2023-05-11T14:25:55.942Z,1.52
2023-05-11T14:28:24.247Z,1.27
2023-05-11T14:30:51.476Z,1.30
2023-05-11T14:33:18.623Z,1.33
2023-05-11T14:35:47.584Z,1.25
2023-05-11T14:38:14.705Z,1.30
2023-05-11T14:40:41.820Z,2.28
2023-05-11T14:43:09.049Z,1.80
2023-05-11T14:45:36.097Z,1.50
2023-05-11T14:48:04.808Z,2.08
2023-05-11T14:50:32.141Z,2.30
2023-05-11T14:52:59.232Z,1.73
2023-05-11T14:55:26.378Z,1.58
2023-05-11T14:57:53.728Z,1.77
2023-05-11T15:00:21.289Z,1.98
2023-05-11T15:02:48.789Z,1.65
2023-05-11T15:05:16.282Z,1.58
2023-05-11T15:07:43.517Z,1.25
2023-05-11T15:10:11.479Z,1.50
2023-05-11T15:12:39.304Z,1.20
2023-05-11T15:15:07.126Z,1.25
2023-05-11T15:17:34.327Z,1.40
2023-05-11T15:20:01.693Z,1.60
2023-05-11T15:22:28.817Z,1.20
2023-05-11T15:24:56.105Z,1.15
2023-05-11T15:27:24.491Z,1.20
2023-05-11T15:29:51.633Z,1.40
2023-05-11T15:32:18.869Z,1.35
2023-05-11T15:34:58.542Z,1.38
2023-05-11T15:37:26.737Z,1.30
2023-05-11T15:39:53.866Z,1.70
2023-05-11T15:42:21.186Z,1.58
2023-05-11T15:44:48.318Z,1.50
2023-05-11T15:47:15.460Z,0.90
2023-05-11T15:49:42.781Z,0.93
2023-05-11T15:52:09.810Z,1.40
2023-05-11T15:54:39.902Z,1.38
2023-05-11T15:57:07.411Z,1.33
2023-05-11T15:59:34.906Z,1.40
2023-05-11T16:02:02.101Z,1.10
2023-05-11T16:04:29.384Z,1.40
2023-05-11T16:06:58.748Z,1.83
2023-05-11T16:09:25.937Z,1.73
2023-05-11T16:11:52.994Z,1.42
2023-05-11T16:14:20.127Z,1.20
2023-05-11T16:16:47.356Z,1.85
2023-05-11T16:19:16.703Z,2.05
2023-05-11T16:21:44.046Z,1.55
2023-05-11T16:24:11.202Z,1.80
2023-05-11T16:26:38.310Z,0.93
2023-05-11T16:29:06.148Z,2.00
2023-05-11T16:31:36.322Z,2.08
2023-05-11T16:34:03.538Z,1.80
2023-05-11T16:36:30.949Z,0.95
2023-05-11T16:38:58.188Z,1.27
2023-05-11T16:41:28.224Z,1.10
2023-05-11T16:43:56.066Z,1.70
2023-05-11T16:46:23.238Z,1.30
2023-05-11T16:48:50.536Z,1.30
2023-05-11T16:51:17.877Z,1.38
2023-05-11T16:53:46.578Z,1.48
2023-05-11T16:56:13.923Z,2.08
2023-05-11T16:58:41.252Z,1.38
2023-05-11T17:01:08.242Z,1.30
2023-05-11T17:03:35.350Z,1.70
2023-05-11T17:06:10.423Z,1.45
2023-05-11T17:08:44.215Z,1.60
2023-05-11T17:11:15.590Z,1.70
2023-05-11T17:13:42.582Z,1.25
2023-05-11T17:16:09.658Z,1.48
2023-05-11T17:18:44.524Z,2.42
2023-05-11T17:21:19.922Z,1.58
2023-05-11T17:23:48.510Z,1.63
2023-05-11T17:26:27.513Z,1.40
2023-05-11T17:29:07.848Z,1.17
2023-05-11T17:31:35.830Z,1.30
2023-05-11T17:34:11.978Z,1.55
2023-05-11T17:36:42.590Z,1.42
2023-05-11T17:39:15.778Z,2.60
2023-05-11T17:41:47.028Z,1.45
2023-05-11T17:44:17.945Z,1.52
2023-05-11T17:46:46.900Z,2.08
2023-05-11T17:49:17.821Z,2.20
2023-05-11T17:51:52.039Z,1.90
2023-05-11T17:54:25.505Z,2.00
2023-05-11T17:56:56.793Z,1.70
2023-05-11T17:59:24.250Z,2.30
2023-05-11T18:01:51.613Z,2.60
2023-05-11T18:04:18.824Z,1.55
2023-05-11T18:06:46.482Z,2.08
2023-05-11T18:09:15.393Z,2.70
2023-05-11T18:11:42.680Z,1.83
2023-05-11T18:14:11.008Z,2.78
2023-05-11T18:16:39.659Z,2.83
2023-05-11T18:19:06.879Z,1.85
2023-05-11T18:21:34.437Z,1.70
2023-05-11T18:24:01.659Z,2.38
2023-05-11T18:26:28.868Z,2.00
2023-05-11T18:28:56.241Z,1.70
2023-05-11T18:31:23.415Z,1.98
2023-05-11T18:33:53.667Z,2.72
2023-05-11T18:36:21.145Z,1.85
2023-05-11T18:38:49.043Z,1.65
2023-05-11T18:41:16.579Z,2.40
2023-05-11T18:43:48.570Z,2.15
2023-05-11T18:46:15.746Z,1.83
2023-05-11T18:48:42.772Z,3.45
2023-05-11T18:51:10.142Z,3.28
2023-05-11T18:53:37.639Z,2.42
2023-05-11T18:56:05.153Z,1.50
2023-05-11T18:58:32.479Z,2.50
2023-05-11T19:00:59.688Z,2.30
2023-05-11T19:03:27.514Z,3.17
2023-05-11T19:05:54.900Z,2.53
2023-05-11T19:08:22.336Z,1.35
2023-05-11T19:10:52.585Z,1.83
2023-05-11T19:13:20.214Z,1.63
2023-05-11T19:15:47.495Z,2.30
2023-05-11T19:18:15.387Z,2.65
2023-05-11T19:20:42.697Z,1.58
2023-05-11T19:23:10.108Z,2.08
2023-05-11T19:25:37.200Z,1.90
2023-05-11T19:28:04.363Z,2.20
2023-05-11T19:30:31.596Z,1.95
2023-05-11T19:32:59.628Z,1.60
2023-05-11T19:35:28.388Z,1.33
2023-05-11T19:37:56.306Z,1.42
2023-05-11T19:42:55.694Z,1.42
2023-05-11T19:45:22.865Z,1.40
2023-05-11T19:47:50.072Z,2.35
2023-05-11T19:50:20.422Z,1.80
2023-05-11T19:52:49.383Z,1.83
2023-05-11T19:55:16.477Z,1.55
2023-05-11T19:57:43.706Z,1.45
2023-05-11T20:00:12.103Z,1.73
2023-05-11T20:02:39.688Z,1.50
2023-05-11T20:05:07.670Z,2.20
2023-05-11T20:07:35.079Z,1.67
2023-05-11T20:10:02.811Z,2.42
2023-05-11T20:12:29.954Z,1.52
2023-05-11T20:14:56.996Z,1.50
2023-05-11T20:17:24.142Z,1.38
2023-05-11T20:19:51.610Z,1.27
2023-05-11T20:22:19.648Z,1.13
2023-05-11T20:24:46.817Z,1.40
2023-05-11T20:27:14.160Z,1.40
2023-05-11T20:29:41.309Z,1.40
2023-05-11T20:32:10.819Z,1.23
2023-05-11T20:34:37.948Z,1.10
2023-05-11T20:37:05.301Z,1.05
2023-05-11T20:39:32.446Z,0.73
2023-05-11T20:42:00.145Z,1.10
2023-05-11T20:44:27.504Z,0.70
2023-05-11T20:46:54.914Z,1.13
2023-05-11T20:49:37.412Z,1.10
2023-05-11T20:54:35.084Z,0.75
2023-05-11T20:57:06.192Z,0.95
2023-05-11T21:02:03.555Z,0.75
2023-05-11T21:04:31.601Z,0.68
2023-05-11T21:06:58.958Z,0.55
2023-05-11T21:09:26.529Z,0.73
2023-05-11T21:11:55.522Z,1.20
2023-05-11T21:14:22.921Z,1.35
2023-05-11T21:16:50.465Z,0.73
2023-05-11T21:19:18.740Z,0.70
2023-05-11T21:21:47.360Z,0.85
2023-05-11T21:24:14.405Z,0.55
2023-05-11T21:26:42.337Z,0.60
2023-05-11T21:29:12.294Z,0.77
2023-05-11T21:31:39.350Z,0.70
2023-05-11T21:34:06.400Z,0.60
2023-05-11T21:36:33.649Z,0.60
2023-05-11T21:39:00.755Z,0.68
2023-05-11T21:41:28.051Z,0.47
2023-05-11T21:43:55.158Z,0.45
2023-05-11T21:46:22.391Z,0.63
2023-05-11T21:48:49.514Z,0.80
2023-05-11T21:51:16.862Z,1.00
2023-05-11T21:53:43.986Z,1.83
2023-05-11T21:56:11.135Z,1.35
2023-05-11T21:58:38.131Z,0.90
2023-05-11T22:01:05.142Z,0.82
2023-05-11T22:03:32.635Z,0.90
2023-05-11T22:06:00.309Z,0.80
2023-05-11T22:08:27.857Z,1.02
2023-05-11T22:10:55.424Z,0.98
2023-05-11T22:13:22.852Z,2.58
2023-05-11T22:15:49.974Z,1.17
2023-05-11T22:18:17.214Z,0.80
2023-05-11T22:20:44.410Z,1.13
2023-05-11T22:23:14.199Z,0.85
2023-05-11T22:25:42.998Z,0.60
2023-05-11T22:28:10.242Z,1.40
2023-05-11T22:30:38.076Z,1.20
2023-05-11T22:33:05.520Z,1.60
2023-05-11T22:35:33.015Z,1.48
2023-05-11T22:38:02.027Z,1.42
2023-05-11T22:40:29.216Z,1.63
2023-05-11T22:42:56.864Z,1.50
2023-05-11T22:45:24.126Z,1.30
2023-05-11T22:47:51.509Z,1.05
2023-05-11T22:50:18.926Z,1.40
2023-05-11T22:52:47.557Z,1.58
2023-05-11T22:55:14.856Z,1.55
2023-05-11T22:57:41.909Z,1.20
2023-05-11T23:00:12.480Z,1.10
2023-05-11T23:02:40.415Z,1.23
2023-05-11T23:05:08.172Z,1.38
2023-05-11T23:07:35.888Z,1.13
2023-05-11T23:10:03.041Z,1.00
2023-05-11T23:12:30.281Z,0.90
2023-05-11T23:14:57.631Z,0.60
2023-05-11T23:17:24.981Z,0.98
2023-05-11T23:19:52.454Z,0.80
2023-05-11T23:22:22.893Z,0.70
2023-05-11T23:24:50.672Z,0.68
2023-05-11T23:27:17.771Z,0.65
2023-05-11T23:29:45.005Z,0.90
2023-05-11T23:32:12.132Z,0.80
2023-05-11T23:34:39.295Z,0.90
2023-05-11T23:37:06.764Z,0.85
2023-05-11T23:39:34.148Z,0.52
2023-05-11T23:42:03.587Z,0.85
2023-05-11T23:44:30.746Z,0.70
2023-05-11T23:46:57.858Z,1.02
2023-05-11T23:49:24.934Z,0.65
2023-05-11T23:51:52.659Z,0.85
2023-05-11T23:54:20.017Z,0.73
2023-05-11T23:56:47.146Z,0.63
2023-05-11T23:59:14.682Z,0.70
